createdAt,value
2022-12-05T00:02:23.841Z,6.58
2022-12-05T00:05:26.507Z,6.43
2022-12-05T00:08:28.736Z,6.57
2022-12-05T00:11:33.329Z,6.51
2022-12-05T00:14:35.541Z,6.35
2022-12-05T00:17:40.748Z,6.39
2022-12-05T00:20:47.370Z,6.50
2022-12-05T00:23:50.626Z,6.48
2022-12-05T00:26:52.919Z,6.49
2022-12-05T00:29:55.842Z,6.48
2022-12-05T00:32:58.748Z,6.19
2022-12-05T00:36:10.494Z,6.47
2022-12-05T00:39:15.357Z,6.44
2022-12-05T00:42:17.915Z,6.41
2022-12-05T00:45:20.214Z,6.33
2022-12-05T00:48:22.835Z,6.48
2022-12-05T00:51:34.289Z,6.37
2022-12-05T00:54:36.809Z,6.35
2022-12-05T00:57:39.119Z,6.40
2022-12-05T01:00:41.686Z,6.35
2022-12-05T01:03:45.127Z,6.19
2022-12-05T01:06:48.111Z,6.28
2022-12-05T01:09:50.451Z,6.25
2022-12-05T01:12:53.032Z,6.21
2022-12-05T01:15:55.690Z,6.19
2022-12-05T01:18:59.086Z,6.36
2022-12-05T01:22:01.399Z,6.37
2022-12-05T01:25:05.224Z,6.27
2022-12-05T01:28:08.621Z,6.23
2022-12-05T01:31:26.649Z,6.35
2022-12-05T01:34:29.795Z,6.37
2022-12-05T01:37:32.316Z,6.33
2022-12-05T01:40:36.334Z,6.34
2022-12-05T01:43:57.390Z,6.31
2022-12-05T01:46:59.519Z,6.32
2022-12-05T01:50:02.808Z,6.31
2022-12-05T01:53:05.561Z,6.11
2022-12-05T01:56:08.868Z,6.25
2022-12-05T01:59:12.997Z,6.06
2022-12-05T02:02:15.881Z,6.15
2022-12-05T02:05:23.300Z,5.99
2022-12-05T02:08:28.591Z,6.12
2022-12-05T02:11:33.443Z,5.97
2022-12-05T02:15:04.462Z,6.12
2022-12-05T02:18:18.747Z,5.99
2022-12-05T02:21:45.983Z,6.13
2022-12-05T02:24:57.481Z,6.13
2022-12-05T02:28:08.316Z,6.13
2022-12-05T02:31:15.024Z,6.13
2022-12-05T02:34:21.206Z,6.00
2022-12-05T02:37:42.952Z,6.00
2022-12-05T02:41:11.037Z,5.99
2022-12-05T02:44:16.285Z,6.16
2022-12-05T02:47:24.512Z,6.01
2022-12-05T02:50:34.754Z,6.05
2022-12-05T02:53:38.678Z,6.00
2022-12-05T02:56:44.965Z,5.92
2022-12-05T02:59:47.217Z,6.08
2022-12-05T03:02:56.123Z,5.82
2022-12-05T03:06:13.422Z,6.05
2022-12-05T03:09:31.537Z,5.92
2022-12-05T03:12:44.714Z,6.05
2022-12-05T03:15:53.184Z,6.01
2022-12-05T03:18:59.068Z,5.90
2022-12-05T03:22:07.371Z,5.93
2022-12-05T03:25:13.078Z,6.09
2022-12-05T03:28:41.569Z,6.00
2022-12-05T03:32:03.699Z,6.08
2022-12-05T03:35:20.615Z,6.08
2022-12-05T03:38:39.139Z,6.06
2022-12-05T03:41:54.848Z,6.04
2022-12-05T03:45:39.628Z,6.06
2022-12-05T03:48:41.985Z,6.04
2022-12-05T03:51:53.676Z,6.07
2022-12-05T03:55:00.574Z,5.88
2022-12-05T03:58:08.667Z,6.08
2022-12-05T04:01:13.794Z,5.95
2022-12-05T04:04:21.860Z,5.93
2022-12-05T04:07:28.910Z,6.10
2022-12-05T04:10:48.507Z,6.09
2022-12-05T04:13:55.155Z,5.98
2022-12-05T04:17:06.497Z,6.00
2022-12-05T04:20:35.918Z,6.12
2022-12-05T04:23:39.817Z,6.12
2022-12-05T04:26:49.795Z,6.14
2022-12-05T04:30:05.109Z,6.13
2022-12-05T04:33:22.595Z,6.11
2022-12-05T04:36:38.732Z,6.12
2022-12-05T04:40:09.771Z,6.12
2022-12-05T04:43:15.045Z,5.96
2022-12-05T04:46:20.118Z,6.13
2022-12-05T04:49:27.457Z,5.97
2022-12-05T04:52:32.557Z,5.97
2022-12-05T04:55:39.392Z,5.96
2022-12-05T04:58:41.763Z,6.05
2022-12-05T05:01:50.621Z,5.94
2022-12-05T05:04:55.263Z,5.95
2022-12-05T05:07:57.966Z,5.96
2022-12-05T05:11:14.647Z,6.11
2022-12-05T05:14:17.203Z,6.12
2022-12-05T05:17:19.454Z,6.03
2022-12-05T05:20:24.516Z,6.08
2022-12-05T05:23:26.754Z,5.92
2022-12-05T05:26:31.663Z,6.10
2022-12-05T05:29:33.853Z,6.08
2022-12-05T05:32:36.379Z,6.11
2022-12-05T05:35:39.003Z,5.82
2022-12-05T05:38:44.345Z,6.08
2022-12-05T05:41:46.581Z,6.06
2022-12-05T05:44:49.114Z,6.07
2022-12-05T05:47:51.399Z,6.06
2022-12-05T05:50:53.924Z,6.04
2022-12-05T05:53:57.550Z,6.00
2022-12-05T05:57:00.103Z,6.06
2022-12-05T06:00:05.722Z,5.99
2022-12-05T06:03:08.880Z,6.02
2022-12-05T06:06:14.420Z,6.08
2022-12-05T06:09:16.956Z,6.10
2022-12-05T06:12:19.410Z,5.94
2022-12-05T06:15:22.663Z,6.09
2022-12-05T06:18:24.971Z,6.09
2022-12-05T06:21:27.922Z,5.94
2022-12-05T06:24:30.231Z,5.99
2022-12-05T06:27:32.815Z,6.08
2022-12-05T06:30:35.087Z,6.13
2022-12-05T06:33:37.830Z,5.98
2022-12-05T06:36:40.291Z,6.10
2022-12-05T06:39:42.918Z,6.13
2022-12-05T06:42:45.148Z,6.17
2022-12-05T06:45:47.706Z,6.11
2022-12-05T06:48:58.469Z,6.22
2022-12-05T06:52:01.028Z,6.24
2022-12-05T06:55:03.482Z,6.23
2022-12-05T06:58:05.984Z,6.32
2022-12-05T07:01:34.811Z,6.35
2022-12-05T07:04:37.482Z,6.36
2022-12-05T07:07:39.866Z,6.27
2022-12-05T07:10:42.413Z,6.33
2022-12-05T07:13:44.630Z,6.28
2022-12-05T07:16:47.366Z,6.40
2022-12-05T07:19:51.283Z,6.43
2022-12-05T07:22:53.779Z,6.32
2022-12-05T07:25:57.714Z,6.43
2022-12-05T07:29:00.285Z,6.32
2022-12-05T07:32:03.185Z,6.45
2022-12-05T07:35:06.054Z,6.46
2022-12-05T07:38:08.404Z,6.50
2022-12-05T07:41:20.677Z,6.52
2022-12-05T07:44:23.188Z,6.42
2022-12-05T07:47:25.926Z,6.58
2022-12-05T07:50:28.277Z,6.43
2022-12-05T07:53:31.953Z,6.54
2022-12-05T07:56:34.228Z,6.60
2022-12-05T07:59:36.802Z,6.48
2022-12-05T08:02:40.950Z,6.48
2022-12-05T08:05:43.747Z,6.65
2022-12-05T08:08:49.931Z,6.70
2022-12-05T08:11:53.038Z,6.72
2022-12-05T08:14:55.325Z,6.72
2022-12-05T08:17:57.932Z,6.59
2022-12-05T08:21:05.466Z,6.61
2022-12-05T08:24:08.591Z,6.74
2022-12-05T08:27:10.838Z,6.61
2022-12-05T08:30:13.591Z,6.74
2022-12-05T08:33:16.052Z,6.69
2022-12-05T08:36:19.672Z,6.65
2022-12-05T08:39:21.933Z,6.75
2022-12-05T08:42:24.421Z,6.68
2022-12-05T08:45:26.717Z,6.76
2022-12-05T08:48:30.596Z,6.74
2022-12-05T08:51:33.113Z,6.82
2022-12-05T08:54:35.670Z,6.69
2022-12-05T08:57:37.964Z,6.65
2022-12-05T09:00:41.783Z,6.72
2022-12-05T09:03:48.079Z,6.88
2022-12-05T09:06:51.824Z,6.93
2022-12-05T09:09:54.495Z,6.84
2022-12-05T09:12:57.082Z,6.98
2022-12-05T09:16:19.642Z,6.99
2022-12-05T09:19:24.127Z,6.89
2022-12-05T09:22:26.444Z,7.12
2022-12-05T09:25:29.146Z,7.17
2022-12-05T09:28:31.796Z,7.14
2022-12-05T09:31:34.726Z,7.19
2022-12-05T09:34:38.295Z,7.20
2022-12-05T09:37:40.939Z,7.14
2022-12-05T09:40:43.573Z,7.16
2022-12-05T09:44:09.359Z,7.03
2022-12-05T09:47:24.144Z,7.32
2022-12-05T09:50:28.160Z,7.34
2022-12-05T09:53:38.771Z,7.39
2022-12-05T09:56:44.264Z,7.38
2022-12-05T09:59:46.555Z,7.25
2022-12-05T10:03:01.114Z,7.26
2022-12-05T10:06:12.566Z,7.34
2022-12-05T10:09:39.825Z,7.38
2022-12-05T10:12:54.861Z,7.35
2022-12-05T10:16:07.466Z,7.36
2022-12-05T10:19:32.113Z,7.41
2022-12-05T10:22:45.868Z,7.27
2022-12-05T10:25:58.864Z,7.45
2022-12-05T10:29:23.898Z,7.33
2022-12-05T10:32:41.786Z,7.57
2022-12-05T10:35:44.437Z,7.56
2022-12-05T10:38:47.072Z,7.61
2022-12-05T10:41:49.587Z,7.46
2022-12-05T10:45:03.729Z,7.82
2022-12-05T10:48:06.015Z,7.88
2022-12-05T10:51:15.670Z,7.98
2022-12-05T10:54:23.991Z,7.88
2022-12-05T10:57:30.162Z,8.01
2022-12-05T11:00:32.639Z,7.89
2022-12-05T11:03:39.590Z,7.86
2022-12-05T11:06:50.897Z,7.90
2022-12-05T11:09:54.185Z,7.94
2022-12-05T11:12:58.922Z,8.12
2022-12-05T11:16:02.326Z,8.13
2022-12-05T11:19:25.471Z,8.00
2022-12-05T11:22:36.007Z,8.08
2022-12-05T11:25:39.050Z,7.91
2022-12-05T11:28:41.698Z,7.89
2022-12-05T11:31:52.343Z,8.00
2022-12-05T11:35:28.682Z,7.87
2022-12-05T11:38:32.823Z,7.86
2022-12-05T11:41:35.701Z,7.81
2022-12-05T11:45:12.978Z,7.79
2022-12-05T11:48:45.559Z,7.92
2022-12-05T11:52:15.129Z,7.90
2022-12-05T11:55:28.153Z,7.91
2022-12-05T11:58:42.271Z,7.90
2022-12-05T12:02:03.751Z,7.96
2022-12-05T12:05:12.493Z,7.93
2022-12-05T12:08:42.436Z,7.92
2022-12-05T12:12:04.042Z,7.89
2022-12-05T12:15:34.266Z,7.92
2022-12-05T12:18:55.487Z,7.91
2022-12-05T12:22:07.887Z,7.95
2022-12-05T12:25:38.673Z,7.95
2022-12-05T12:29:25.179Z,7.97
2022-12-05T12:32:52.838Z,7.88
2022-12-05T12:36:04.039Z,8.01
2022-12-05T12:39:25.331Z,7.99
2022-12-05T12:43:02.849Z,8.01
2022-12-05T12:46:37.045Z,8.05
2022-12-05T12:50:03.084Z,8.13
2022-12-05T12:53:28.939Z,8.20
2022-12-05T12:56:42.013Z,8.08
2022-12-05T13:00:09.232Z,8.17
2022-12-05T13:03:33.706Z,8.16
2022-12-05T13:06:47.546Z,8.21
2022-12-05T13:09:57.804Z,8.21
2022-12-05T13:13:03.401Z,8.05
2022-12-05T13:16:08.295Z,8.18
2022-12-05T13:19:42.581Z,8.20
2022-12-05T13:22:46.426Z,8.21
2022-12-05T13:25:50.777Z,8.20
2022-12-05T13:28:55.563Z,8.19
2022-12-05T13:31:59.074Z,8.13
2022-12-05T13:35:07.537Z,8.11
2022-12-05T13:38:40.170Z,8.12
2022-12-05T13:42:08.011Z,7.99
2022-12-05T13:45:20.418Z,8.03
2022-12-05T13:48:26.217Z,8.13
2022-12-05T13:51:37.071Z,8.05
2022-12-05T13:54:48.461Z,7.92
2022-12-05T13:57:53.758Z,8.03
2022-12-05T14:01:26.583Z,8.04
2022-12-05T14:04:53.914Z,8.09
2022-12-05T14:08:02.287Z,8.05
2022-12-05T14:11:09.586Z,8.13
2022-12-05T14:14:12.023Z,8.14
2022-12-05T14:17:14.946Z,7.98
2022-12-05T14:20:48.378Z,8.13
2022-12-05T14:23:59.193Z,8.12
2022-12-05T14:27:11.680Z,8.12
2022-12-05T14:30:44.963Z,8.08
2022-12-05T14:34:05.256Z,8.04
2022-12-05T14:37:16.815Z,7.94
2022-12-05T14:40:19.102Z,8.11
2022-12-05T14:43:32.134Z,8.10
2022-12-05T14:46:34.579Z,8.06
2022-12-05T14:49:52.932Z,7.95
2022-12-05T14:53:14.031Z,7.95
2022-12-05T14:56:20.809Z,8.07
2022-12-05T14:59:35.537Z,7.94
2022-12-05T15:02:45.370Z,8.08
2022-12-05T15:05:48.306Z,7.93
2022-12-05T15:08:55.305Z,8.11
2022-12-05T15:11:58.931Z,8.12
2022-12-05T15:15:08.153Z,8.13
2022-12-05T15:18:35.594Z,8.01
2022-12-05T15:21:42.456Z,8.10
2022-12-05T15:24:44.729Z,8.12
2022-12-05T15:28:06.933Z,8.00
2022-12-05T15:31:13.522Z,8.01
2022-12-05T15:34:43.413Z,8.11
2022-12-05T15:37:54.976Z,8.14
2022-12-05T15:40:57.568Z,8.15
2022-12-05T15:43:59.949Z,8.10
2022-12-05T15:47:02.691Z,8.10
2022-12-05T15:50:05.754Z,8.07
2022-12-05T15:53:25.226Z,7.95
2022-12-05T15:56:38.270Z,8.00
2022-12-05T16:00:04.785Z,8.07
2022-12-05T16:03:20.449Z,8.09
2022-12-05T16:06:32.231Z,7.91
2022-12-05T16:09:40.638Z,7.90
2022-12-05T16:12:43.973Z,8.06
2022-12-05T16:15:53.027Z,8.06
2022-12-05T16:19:03.698Z,8.06
2022-12-05T16:22:05.871Z,7.89
2022-12-05T16:25:15.958Z,7.98
2022-12-05T16:28:20.948Z,8.04
2022-12-05T16:31:23.635Z,7.89
2022-12-05T16:34:27.917Z,8.01
2022-12-05T16:37:30.826Z,8.00
2022-12-05T16:40:33.792Z,7.97
2022-12-05T16:43:36.270Z,7.88
2022-12-05T16:46:38.460Z,8.01
2022-12-05T16:49:46.042Z,8.01
2022-12-05T16:52:49.583Z,8.01
2022-12-05T16:55:52.684Z,8.01
2022-12-05T16:58:55.258Z,7.99
2022-12-05T17:01:58.159Z,7.98
2022-12-05T17:05:06.927Z,8.00
2022-12-05T17:08:09.488Z,8.04
2022-12-05T17:11:19.081Z,8.04
2022-12-05T17:14:21.631Z,8.00
2022-12-05T17:17:23.856Z,7.88
2022-12-05T17:20:26.827Z,8.04
2022-12-05T17:23:29.196Z,8.07
2022-12-05T17:26:31.774Z,8.06
2022-12-05T17:29:35.849Z,8.06
2022-12-05T17:32:38.709Z,8.06
2022-12-05T17:35:41.376Z,8.03
2022-12-05T17:38:44.267Z,7.93
2022-12-05T17:41:46.583Z,8.05
2022-12-05T17:44:49.349Z,8.03
2022-12-05T17:47:51.684Z,8.03
2022-12-05T17:50:57.770Z,8.00
2022-12-05T17:54:00.035Z,7.99
2022-12-05T17:57:02.618Z,7.86
2022-12-05T18:00:05.707Z,7.85
2022-12-05T18:03:14.825Z,7.90
2022-12-05T18:06:17.957Z,7.90
2022-12-05T18:09:20.290Z,7.82
2022-12-05T18:12:22.838Z,7.98
2022-12-05T18:15:25.085Z,7.84
2022-12-05T18:18:29.350Z,7.98
2022-12-05T18:21:31.566Z,7.98
2022-12-05T18:24:34.028Z,7.99
2022-12-05T18:27:37.746Z,7.70
2022-12-05T18:30:41.178Z,7.85
2022-12-05T18:33:45.439Z,8.01
2022-12-05T18:36:47.995Z,8.00
2022-12-05T18:39:50.326Z,7.98
2022-12-05T18:42:53.298Z,7.71
2022-12-05T18:45:57.540Z,7.75
2022-12-05T18:49:03.306Z,8.00
2022-12-05T18:52:06.008Z,7.61
2022-12-05T18:55:17.182Z,7.93
2022-12-05T18:58:19.964Z,7.99
2022-12-05T19:01:23.033Z,7.88
2022-12-05T19:04:25.510Z,8.00
2022-12-05T19:07:28.166Z,7.87
2022-12-05T19:10:30.448Z,7.88
2022-12-05T19:13:33.212Z,7.98
2022-12-05T19:16:36.128Z,7.89
2022-12-05T19:19:38.743Z,8.01
2022-12-05T19:22:41.270Z,7.99
2022-12-05T19:25:44.291Z,7.92
2022-12-05T19:28:46.695Z,8.07
2022-12-05T19:31:49.743Z,7.93
2022-12-05T19:34:52.276Z,8.07
2022-12-05T19:37:55.265Z,8.07
2022-12-05T19:40:59.616Z,8.09
2022-12-05T19:44:02.741Z,8.08
2022-12-05T19:47:05.124Z,7.93
2022-12-05T19:50:08.052Z,8.09
2022-12-05T19:53:12.370Z,7.95
2022-12-05T19:56:20.169Z,8.07
2022-12-05T19:59:22.360Z,8.05
2022-12-05T20:02:25.531Z,7.95
2022-12-05T20:05:29.688Z,8.07
2022-12-05T20:08:33.246Z,8.06
2022-12-05T20:11:41.953Z,7.82
2022-12-05T20:14:44.262Z,8.06
2022-12-05T20:17:52.894Z,8.06
2022-12-05T20:21:00.544Z,7.69
2022-12-05T20:24:04.740Z,8.11
2022-12-05T20:27:08.547Z,8.14
2022-12-05T20:30:11.058Z,7.55
2022-12-05T20:33:13.632Z,8.14
2022-12-05T20:36:27.626Z,7.98
2022-12-05T20:39:29.891Z,8.11
2022-12-05T20:42:32.400Z,8.09
2022-12-05T20:45:34.736Z,7.97
2022-12-05T20:48:37.794Z,7.96
2022-12-05T20:51:42.293Z,8.03
2022-12-05T20:54:44.881Z,7.92
2022-12-05T20:57:47.146Z,8.04
2022-12-05T21:00:49.805Z,8.05
2022-12-05T21:03:55.493Z,7.92
2022-12-05T21:06:58.284Z,8.04
2022-12-05T21:10:06.378Z,7.95
2022-12-05T21:13:10.724Z,8.02
2022-12-05T21:16:16.750Z,7.88
2022-12-05T21:19:20.725Z,8.03
2022-12-05T21:22:24.571Z,7.98
2022-12-05T21:25:27.164Z,7.87
2022-12-05T21:28:33.117Z,8.00
2022-12-05T21:31:38.827Z,7.85
2022-12-05T21:34:41.130Z,8.01
2022-12-05T21:37:43.629Z,7.87
2022-12-05T21:40:46.259Z,7.98
2022-12-05T21:43:54.043Z,7.97
2022-12-05T21:46:57.463Z,7.94
2022-12-05T21:50:00.274Z,7.93
2022-12-05T21:53:02.900Z,7.81
2022-12-05T21:56:11.577Z,7.93
2022-12-05T21:59:13.902Z,7.91
2022-12-05T22:02:16.476Z,7.78
2022-12-05T22:05:19.059Z,7.88
2022-12-05T22:08:21.368Z,7.76
2022-12-05T22:11:24.839Z,7.83
2022-12-05T22:14:27.307Z,7.83
2022-12-05T22:17:30.587Z,7.80
2022-12-05T22:20:32.867Z,7.63
2022-12-05T22:23:35.531Z,7.61
2022-12-05T22:26:37.873Z,7.67
2022-12-05T22:29:40.672Z,7.64
2022-12-05T22:32:43.625Z,7.76
2022-12-05T22:35:57.311Z,7.77
2022-12-05T22:38:59.629Z,7.63
2022-12-05T22:42:02.295Z,7.64
2022-12-05T22:45:05.064Z,7.75
2022-12-05T22:48:07.624Z,7.76
2022-12-05T22:51:10.378Z,7.72
2022-12-05T22:54:12.953Z,7.69
2022-12-05T22:57:15.168Z,7.66
2022-12-05T23:00:18.218Z,7.61
2022-12-05T23:03:20.870Z,7.60
2022-12-05T23:06:23.864Z,7.53
2022-12-05T23:09:26.271Z,7.55
2022-12-05T23:12:28.839Z,7.66
2022-12-05T23:15:31.507Z,7.65
2022-12-05T23:18:47.360Z,7.57
2022-12-05T23:21:49.563Z,7.65
2022-12-05T23:24:52.148Z,7.62
2022-12-05T23:27:54.272Z,7.64
2022-12-05T23:31:01.933Z,7.63
2022-12-05T23:34:04.473Z,7.60
2022-12-05T23:37:06.906Z,7.54
2022-12-05T23:40:09.795Z,7.49
2022-12-05T23:43:12.230Z,7.62
2022-12-05T23:46:17.431Z,7.60
2022-12-05T23:49:20.016Z,7.60
2022-12-05T23:52:22.220Z,7.56
2022-12-05T23:55:24.616Z,7.47
2022-12-05T23:58:26.739Z,7.53
